createdAt,value
2023-03-08T00:00:21.164Z,100.00
2023-03-08T00:02:50.216Z,100.00
2023-03-08T00:05:21.484Z,100.00
2023-03-08T00:07:50.614Z,100.00
2023-03-08T00:10:20.686Z,100.00
2023-03-08T00:12:49.904Z,100.00
2023-03-08T00:15:20.031Z,100.00
2023-03-08T00:17:49.216Z,100.00
2023-03-08T00:20:18.271Z,100.00
2023-03-08T00:22:49.347Z,100.00
2023-03-08T00:25:18.523Z,100.00
2023-03-08T00:27:47.611Z,100.00
2023-03-08T00:30:17.112Z,100.00
2023-03-08T00:32:46.330Z,100.00
2023-03-08T00:35:15.647Z,100.00
2023-03-08T00:37:49.289Z,100.00
2023-03-08T00:40:18.957Z,100.00
2023-03-08T00:42:47.985Z,100.00
2023-03-08T00:45:17.246Z,100.00
2023-03-08T00:47:46.495Z,100.00
2023-03-08T00:50:15.648Z,100.00
2023-03-08T00:52:49.283Z,100.00
2023-03-08T00:55:18.415Z,100.00
2023-03-08T00:57:49.226Z,100.00
2023-03-08T01:00:19.299Z,100.00
2023-03-08T01:02:48.509Z,100.00
2023-03-08T01:05:17.514Z,100.00
2023-03-08T01:07:46.570Z,100.00
2023-03-08T01:10:17.449Z,100.00
2023-03-08T01:12:46.442Z,100.00
2023-03-08T01:15:16.304Z,100.00
2023-03-08T01:17:45.316Z,100.00
2023-03-08T01:20:14.943Z,100.00
2023-03-08T01:22:43.920Z,100.00
2023-03-08T01:25:13.410Z,100.00
2023-03-08T01:27:44.076Z,100.00
2023-03-08T01:30:13.850Z,100.00
2023-03-08T01:32:43.631Z,100.00
2023-03-08T01:35:12.928Z,100.00
2023-03-08T01:37:42.613Z,100.00
2023-03-08T01:40:18.702Z,100.00
2023-03-08T01:42:49.308Z,100.00
2023-03-08T01:45:54.089Z,100.00
2023-03-08T01:48:31.963Z,100.00
2023-03-08T01:51:06.423Z,100.00
2023-03-08T01:53:38.970Z,100.00
2023-03-08T01:56:10.666Z,100.00
2023-03-08T01:58:43.433Z,100.00
2023-03-08T02:01:13.044Z,100.00
2023-03-08T02:03:42.432Z,100.00
2023-03-08T02:06:12.300Z,100.00
2023-03-08T02:08:42.632Z,100.00
2023-03-08T02:11:15.608Z,100.00
2023-03-08T02:13:46.588Z,100.00
2023-03-08T02:16:18.070Z,100.00
2023-03-08T02:18:55.735Z,100.00
2023-03-08T02:21:26.440Z,100.00
2023-03-08T02:23:57.126Z,100.00
2023-03-08T02:26:26.976Z,100.00
2023-03-08T02:28:56.508Z,100.00
2023-03-08T02:31:25.617Z,100.00
2023-03-08T02:33:54.850Z,100.00
2023-03-08T02:36:23.898Z,100.00
2023-03-08T02:38:53.022Z,100.00
2023-03-08T02:41:23.661Z,100.00
2023-03-08T02:43:52.862Z,100.00
2023-03-08T02:46:21.880Z,100.00
2023-03-08T02:48:53.075Z,100.00
2023-03-08T02:51:23.548Z,100.00
2023-03-08T02:53:52.683Z,100.00
2023-03-08T02:56:23.316Z,100.00
2023-03-08T02:58:55.558Z,100.00
2023-03-08T03:01:26.224Z,100.00
2023-03-08T03:03:56.626Z,100.00
2023-03-08T03:06:25.830Z,100.00
2023-03-08T03:08:58.055Z,100.00
2023-03-08T03:11:29.697Z,100.00
2023-03-08T03:14:00.532Z,100.00
2023-03-08T03:16:35.770Z,100.00
2023-03-08T03:19:05.051Z,100.00
2023-03-08T03:21:34.560Z,100.00
2023-03-08T03:24:03.705Z,100.00
2023-03-08T03:26:42.637Z,100.00
2023-03-08T03:29:12.209Z,100.00
2023-03-08T03:31:44.665Z,100.00
2023-03-08T03:34:14.777Z,100.00
2023-03-08T03:36:46.445Z,100.00
2023-03-08T03:39:16.370Z,100.00
2023-03-08T03:41:49.154Z,100.00
2023-03-08T03:44:19.333Z,100.00
2023-03-08T03:46:50.952Z,100.00
2023-03-08T03:49:25.628Z,100.00
2023-03-08T03:51:54.819Z,100.00
2023-03-08T03:54:33.708Z,100.00
2023-03-08T03:57:04.287Z,100.00
2023-03-08T03:59:38.578Z,100.00
2023-03-08T04:02:08.803Z,100.00
2023-03-08T04:04:46.421Z,100.00
2023-03-08T04:07:18.374Z,100.00
2023-03-08T04:09:56.664Z,100.00
2023-03-08T04:12:27.513Z,100.00
2023-03-08T04:14:57.980Z,100.00
2023-03-08T04:17:33.636Z,100.00
2023-03-08T04:20:04.576Z,100.00
2023-03-08T04:22:38.288Z,100.00
2023-03-08T04:25:18.444Z,100.00
2023-03-08T04:27:56.580Z,100.00
2023-03-08T04:30:25.995Z,100.00
2023-03-08T04:32:57.243Z,100.00
2023-03-08T04:35:33.278Z,100.00
2023-03-08T04:38:03.042Z,100.00
2023-03-08T04:40:32.478Z,100.00
2023-03-08T04:43:07.080Z,100.00
2023-03-08T04:45:40.373Z,100.00
2023-03-08T04:48:15.379Z,100.00
2023-03-08T04:50:45.582Z,100.00
2023-03-08T04:53:15.619Z,100.00
2023-03-08T04:55:44.926Z,100.00
2023-03-08T04:58:15.528Z,100.00
2023-03-08T05:00:44.794Z,100.00
2023-03-08T05:03:14.244Z,100.00
2023-03-08T05:05:48.506Z,100.00
2023-03-08T05:08:18.425Z,100.00
2023-03-08T05:10:51.695Z,100.00
2023-03-08T05:13:22.590Z,100.00
2023-03-08T05:15:52.379Z,100.00
2023-03-08T05:18:21.785Z,100.00
2023-03-08T05:20:56.565Z,100.00
2023-03-08T05:23:28.506Z,100.00
2023-03-08T05:26:00.232Z,100.00
2023-03-08T05:28:33.121Z,100.00
2023-03-08T05:31:03.516Z,100.00
2023-03-08T05:33:34.453Z,100.00
2023-03-08T05:36:04.069Z,100.00
2023-03-08T05:38:33.978Z,100.00
2023-03-08T05:41:08.942Z,100.00
2023-03-08T05:43:40.893Z,100.00
2023-03-08T05:46:14.480Z,100.00
2023-03-08T05:48:44.921Z,100.00
2023-03-08T05:51:17.734Z,100.00
2023-03-08T05:53:48.158Z,100.00
2023-03-08T05:56:21.110Z,100.00
2023-03-08T05:59:18.187Z,100.00
2023-03-08T06:01:49.200Z,97.87
2023-03-08T06:04:26.244Z,82.39
2023-03-08T06:06:56.705Z,71.19
2023-03-08T06:09:31.285Z,63.36
2023-03-08T06:12:01.320Z,58.29
2023-03-08T06:14:33.328Z,52.71
2023-03-08T06:17:03.478Z,53.15
2023-03-08T06:19:36.207Z,50.10
2023-03-08T06:22:05.237Z,48.64
2023-03-08T06:24:35.005Z,46.56
2023-03-08T06:27:08.044Z,46.45
2023-03-08T06:29:40.127Z,44.99
2023-03-08T06:32:09.706Z,45.32
2023-03-08T06:34:41.877Z,45.81
2023-03-08T06:37:11.062Z,45.05
2023-03-08T06:39:40.556Z,45.68
2023-03-08T06:42:09.810Z,45.59
2023-03-08T06:44:40.500Z,46.28
2023-03-08T06:47:09.765Z,46.06
2023-03-08T06:49:40.082Z,46.88
2023-03-08T06:52:09.410Z,47.11
2023-03-08T06:54:39.847Z,48.84
2023-03-08T06:57:08.964Z,51.31
2023-03-08T06:59:42.448Z,54.18
2023-03-08T07:02:12.225Z,54.32
2023-03-08T07:04:41.514Z,53.84
2023-03-08T07:07:10.689Z,52.51
2023-03-08T07:09:40.092Z,52.82
2023-03-08T07:12:09.788Z,56.07
2023-03-08T07:14:39.027Z,55.70
2023-03-08T07:17:09.590Z,57.96
2023-03-08T07:19:39.651Z,62.62
2023-03-08T07:22:13.141Z,64.72
2023-03-08T07:24:42.284Z,76.46
2023-03-08T07:27:13.697Z,82.86
2023-03-08T07:29:42.845Z,89.66
2023-03-08T07:32:13.477Z,88.37
2023-03-08T07:34:43.545Z,87.13
2023-03-08T07:37:14.002Z,91.35
2023-03-08T07:39:43.766Z,93.49
2023-03-08T07:42:13.565Z,96.60
2023-03-08T07:44:48.879Z,99.86
2023-03-08T07:47:19.432Z,100.00
2023-03-08T07:49:49.172Z,100.00
2023-03-08T07:52:18.925Z,100.00
2023-03-08T07:54:48.224Z,100.00
2023-03-08T07:57:18.061Z,100.00
2023-03-08T07:59:47.950Z,100.00
2023-03-08T08:02:18.515Z,100.00
2023-03-08T08:04:47.918Z,100.00
2023-03-08T08:07:18.031Z,100.00
2023-03-08T08:09:47.933Z,100.00
2023-03-08T08:12:17.210Z,100.00
2023-03-08T08:14:46.514Z,100.00
2023-03-08T08:17:16.634Z,100.00
2023-03-08T08:19:48.073Z,100.00
2023-03-08T08:22:17.163Z,100.00
2023-03-08T08:24:46.324Z,100.00
2023-03-08T08:27:16.035Z,100.00
2023-03-08T08:29:46.442Z,100.00
2023-03-08T08:32:15.702Z,100.00
2023-03-08T08:34:45.011Z,100.00
2023-03-08T08:37:15.542Z,100.00
2023-03-08T08:39:44.636Z,100.00
2023-03-08T08:42:13.786Z,100.00
2023-03-08T08:44:42.965Z,100.00
2023-03-08T08:47:12.145Z,100.00
2023-03-08T08:49:41.843Z,100.00
2023-03-08T08:52:10.993Z,100.00
2023-03-08T08:54:41.777Z,100.00
2023-03-08T08:57:10.979Z,100.00
2023-03-08T08:59:40.324Z,100.00
2023-03-08T09:02:13.787Z,100.00
2023-03-08T09:04:43.035Z,100.00
2023-03-08T09:07:12.152Z,100.00
2023-03-08T09:09:42.753Z,100.00
2023-03-08T09:12:11.916Z,100.00
2023-03-08T09:14:40.988Z,100.00
2023-03-08T09:17:10.159Z,100.00
2023-03-08T09:19:41.280Z,100.00
2023-03-08T09:22:11.786Z,100.00
2023-03-08T09:24:42.404Z,100.00
2023-03-08T09:27:11.811Z,100.00
2023-03-08T09:29:41.053Z,100.00
2023-03-08T09:32:10.274Z,100.00
2023-03-08T09:34:39.695Z,100.00
2023-03-08T09:37:08.791Z,100.00
2023-03-08T09:39:38.828Z,100.00
2023-03-08T09:42:20.955Z,100.00
2023-03-08T09:45:00.042Z,100.00
2023-03-08T09:47:36.896Z,100.00
2023-03-08T09:50:17.686Z,100.00
2023-03-08T09:52:52.324Z,100.00
2023-03-08T09:55:30.662Z,100.00
2023-03-08T09:58:03.568Z,100.00
2023-03-08T10:00:35.876Z,100.00
2023-03-08T10:04:01.339Z,100.00
2023-03-08T10:06:37.474Z,100.00
2023-03-08T10:09:18.616Z,100.00
2023-03-08T10:11:55.754Z,100.00
2023-03-08T10:14:29.347Z,100.00
2023-03-08T10:17:01.214Z,100.00
2023-03-08T10:19:34.810Z,100.00
2023-03-08T10:22:11.003Z,100.00
2023-03-08T10:24:47.042Z,100.00
2023-03-08T10:27:22.026Z,97.12
2023-03-08T10:29:55.134Z,93.97
2023-03-08T10:32:25.504Z,80.74
2023-03-08T10:34:56.011Z,74.28
2023-03-08T10:37:33.042Z,70.39
2023-03-08T10:40:06.151Z,65.64
2023-03-08T10:42:36.847Z,62.65
2023-03-08T10:45:16.443Z,66.15
2023-03-08T10:47:56.245Z,59.84
2023-03-08T10:50:27.927Z,56.45
2023-03-08T10:52:57.314Z,54.08
2023-03-08T10:55:31.697Z,52.10
2023-03-08T10:58:02.756Z,49.90
2023-03-08T11:00:38.600Z,47.55
2023-03-08T11:03:16.236Z,46.87
2023-03-08T11:05:56.757Z,46.25
2023-03-08T11:08:28.669Z,44.02
2023-03-08T11:11:06.563Z,44.95
2023-03-08T11:13:37.659Z,44.66
2023-03-08T11:16:35.811Z,44.79
2023-03-08T11:19:12.224Z,42.45
2023-03-08T11:21:52.631Z,43.15
2023-03-08T11:24:43.842Z,42.88
2023-03-08T11:27:25.700Z,42.00
2023-03-08T11:30:09.204Z,42.07
2023-03-08T11:32:53.332Z,43.33
2023-03-08T11:35:29.532Z,44.00
2023-03-08T11:38:05.119Z,45.72
2023-03-08T11:40:43.940Z,44.11
2023-03-08T11:43:26.878Z,44.75
2023-03-08T11:46:03.930Z,46.27
2023-03-08T11:49:11.121Z,46.40
2023-03-08T11:51:49.953Z,48.30
2023-03-08T11:54:31.032Z,49.90
2023-03-08T11:57:02.442Z,48.63
2023-03-08T11:59:35.573Z,48.77
2023-03-08T12:02:11.362Z,48.68
2023-03-08T12:04:47.733Z,48.22
2023-03-08T12:07:23.727Z,48.73
2023-03-08T12:10:00.472Z,50.37
2023-03-08T12:12:33.406Z,48.72
2023-03-08T12:15:09.334Z,49.67
2023-03-08T12:17:45.845Z,50.68
2023-03-08T12:20:20.497Z,50.78
2023-03-08T12:22:56.226Z,51.12
2023-03-08T12:25:29.916Z,51.55
2023-03-08T12:28:06.553Z,51.19
2023-03-08T12:43:34.903Z,40.67
2023-03-08T12:46:06.441Z,41.14
2023-03-08T12:48:37.875Z,43.47
2023-03-08T12:51:21.193Z,43.34
2023-03-08T12:53:58.251Z,42.27
2023-03-08T12:56:32.576Z,40.43
2023-03-08T12:59:05.274Z,40.48
2023-03-08T13:01:40.331Z,41.48
2023-03-08T13:04:40.528Z,42.84
2023-03-08T13:07:28.573Z,43.91
2023-03-08T13:10:04.702Z,44.33
2023-03-08T13:12:43.637Z,44.49
2023-03-08T13:15:27.996Z,44.80
2023-03-08T13:18:06.382Z,45.93
2023-03-08T13:20:54.000Z,46.00
2023-03-08T13:23:29.507Z,45.73
2023-03-08T13:26:31.374Z,44.70
2023-03-08T13:29:12.770Z,44.77
2023-03-08T13:31:46.150Z,44.36
2023-03-08T13:34:31.015Z,44.09
2023-03-08T13:37:00.328Z,45.07
2023-03-08T13:39:30.683Z,43.69
2023-03-08T13:42:10.628Z,44.54
2023-03-08T13:44:40.175Z,44.66
2023-03-08T13:47:22.841Z,45.42
2023-03-08T13:49:53.522Z,45.55
2023-03-08T13:52:24.909Z,46.18
2023-03-08T13:54:56.647Z,46.55
2023-03-08T13:57:28.585Z,47.39
2023-03-08T13:59:59.975Z,47.50
2023-03-08T14:02:32.794Z,48.42
2023-03-08T14:05:01.896Z,47.78
2023-03-08T14:07:33.571Z,48.16
2023-03-08T14:10:02.654Z,47.74
2023-03-08T14:12:35.151Z,47.58
2023-03-08T14:15:06.502Z,48.52
2023-03-08T14:17:38.059Z,47.71
2023-03-08T14:20:20.470Z,48.01
2023-03-08T14:22:52.295Z,48.54
2023-03-08T14:25:28.369Z,48.00
2023-03-08T14:27:57.968Z,48.11
2023-03-08T14:30:28.492Z,47.66
2023-03-08T14:33:28.365Z,48.19
2023-03-08T14:36:06.487Z,46.87
2023-03-08T14:38:36.183Z,46.87
2023-03-08T14:41:07.596Z,48.23
2023-03-08T14:43:36.812Z,47.58
2023-03-08T14:46:07.871Z,47.92
2023-03-08T14:48:39.522Z,48.61
2023-03-08T14:51:27.379Z,48.35
2023-03-08T14:54:01.588Z,48.36
2023-03-08T14:56:32.029Z,48.29
2023-03-08T14:59:04.060Z,49.60
2023-03-08T15:01:35.811Z,48.99
2023-03-08T15:04:19.300Z,49.94
2023-03-08T15:06:49.181Z,49.48
2023-03-08T15:09:20.046Z,49.67
2023-03-08T15:11:52.403Z,50.23
2023-03-08T15:14:21.410Z,50.06
2023-03-08T15:16:51.359Z,50.71
2023-03-08T15:19:22.266Z,49.96
2023-03-08T15:21:51.548Z,48.18
2023-03-08T15:24:21.060Z,48.81
2023-03-08T15:26:53.258Z,48.23
2023-03-08T15:29:27.952Z,47.72
2023-03-08T15:31:57.729Z,47.93
2023-03-08T15:34:28.663Z,47.48
2023-03-08T15:37:00.888Z,46.73
2023-03-08T15:39:30.153Z,46.71
2023-03-08T15:42:00.105Z,46.42
2023-03-08T15:44:29.119Z,46.27
2023-03-08T15:47:01.896Z,47.05
2023-03-08T15:49:32.617Z,47.16
2023-03-08T15:52:01.659Z,47.60
2023-03-08T15:54:32.175Z,47.56
2023-03-08T15:57:01.193Z,47.44
2023-03-08T15:59:30.149Z,47.39
2023-03-08T16:01:59.444Z,47.85
2023-03-08T16:04:28.553Z,48.69
2023-03-08T16:06:59.179Z,48.18
2023-03-08T16:09:28.387Z,47.71
2023-03-08T16:11:57.325Z,48.05
2023-03-08T16:14:26.322Z,48.33
2023-03-08T16:16:55.394Z,48.55
2023-03-08T16:19:24.826Z,48.48
2023-03-08T16:21:54.017Z,49.03
2023-03-08T16:24:24.461Z,49.77
2023-03-08T16:26:53.578Z,50.02
2023-03-08T16:29:23.187Z,50.03
2023-03-08T16:31:52.295Z,50.89
2023-03-08T16:34:22.272Z,51.15
2023-03-08T16:36:51.385Z,51.77
2023-03-08T16:39:20.576Z,51.99
2023-03-08T16:41:51.312Z,52.47
2023-03-08T16:44:21.964Z,53.65
2023-03-08T16:46:51.442Z,53.41
2023-03-08T16:49:23.050Z,53.76
2023-03-08T16:51:52.058Z,54.16
2023-03-08T16:54:21.129Z,54.36
2023-03-08T16:56:52.121Z,54.95
2023-03-08T16:59:21.271Z,55.99
2023-03-08T17:01:50.438Z,56.57
2023-03-08T17:04:19.831Z,56.65
2023-03-08T17:06:49.131Z,56.95
2023-03-08T17:09:18.332Z,58.00
2023-03-08T17:11:50.348Z,62.64
2023-03-08T17:14:22.482Z,64.00
2023-03-08T17:16:52.135Z,63.13
2023-03-08T17:19:21.675Z,63.49
2023-03-08T17:21:51.481Z,62.28
2023-03-08T17:24:21.966Z,61.65
2023-03-08T17:26:53.257Z,60.09
2023-03-08T17:29:24.608Z,59.43
2023-03-08T17:31:54.894Z,58.89
2023-03-08T17:34:24.414Z,58.63
2023-03-08T17:36:53.795Z,58.30
2023-03-08T17:39:23.706Z,58.47
2023-03-08T17:41:52.817Z,58.46
2023-03-08T17:44:23.391Z,58.62
2023-03-08T17:46:52.652Z,58.70
2023-03-08T17:49:25.244Z,59.09
2023-03-08T17:51:55.217Z,59.77
2023-03-08T17:54:24.361Z,60.29
2023-03-08T17:56:53.620Z,61.36
2023-03-08T17:59:24.280Z,61.81
2023-03-08T18:01:53.389Z,64.04
2023-03-08T18:04:23.738Z,63.53
2023-03-08T18:06:52.858Z,63.65
2023-03-08T18:09:22.247Z,64.59
2023-03-08T18:11:51.625Z,64.60
2023-03-08T18:14:26.210Z,63.44
2023-03-08T18:17:05.731Z,64.07
2023-03-08T18:19:35.016Z,64.90
2023-03-08T18:22:05.372Z,64.62
2023-03-08T18:24:35.134Z,64.61
2023-03-08T18:27:05.965Z,65.70
2023-03-08T18:29:36.101Z,66.56
2023-03-08T18:32:08.942Z,67.96
2023-03-08T18:34:39.603Z,70.02
2023-03-08T18:37:09.116Z,70.03
2023-03-08T18:39:38.537Z,69.74
2023-03-08T18:42:08.072Z,69.56
2023-03-08T18:44:38.849Z,72.12
2023-03-08T18:47:10.418Z,72.84
2023-03-08T18:49:41.951Z,72.33
2023-03-08T18:52:11.948Z,73.53
2023-03-08T18:54:41.720Z,73.66
2023-03-08T18:57:10.908Z,73.34
2023-03-08T18:59:40.149Z,75.33
2023-03-08T19:02:12.803Z,74.95
2023-03-08T19:04:44.235Z,75.62
2023-03-08T19:07:14.402Z,76.17
2023-03-08T19:09:46.162Z,76.34
2023-03-08T19:12:16.004Z,76.59
2023-03-08T19:14:46.948Z,77.03
2023-03-08T19:17:17.686Z,77.63
2023-03-08T19:19:48.024Z,79.87
2023-03-08T19:22:17.396Z,81.07
2023-03-08T19:24:47.339Z,82.11
2023-03-08T19:27:16.473Z,83.57
2023-03-08T19:29:45.784Z,83.55
2023-03-08T19:32:16.240Z,85.17
2023-03-08T19:34:48.706Z,86.81
2023-03-08T19:37:18.069Z,87.69
2023-03-08T19:39:47.946Z,87.52
2023-03-08T19:42:18.046Z,87.60
2023-03-08T19:44:48.840Z,88.69
2023-03-08T19:47:20.367Z,89.39
2023-03-08T19:49:51.085Z,90.81
2023-03-08T19:52:20.200Z,91.19
2023-03-08T19:54:49.309Z,92.21
2023-03-08T19:57:18.470Z,93.03
2023-03-08T19:59:47.845Z,94.69
2023-03-08T20:02:16.986Z,94.35
2023-03-08T20:04:46.379Z,93.80
2023-03-08T20:07:16.849Z,94.31
2023-03-08T20:09:46.000Z,93.91
2023-03-08T20:12:15.048Z,94.23
2023-03-08T20:14:45.925Z,94.83
2023-03-08T20:17:15.031Z,95.75
2023-03-08T20:19:44.359Z,96.30
2023-03-08T20:22:13.462Z,96.79
2023-03-08T20:24:43.830Z,96.48
2023-03-08T20:27:12.802Z,96.50
2023-03-08T20:29:42.002Z,97.11
2023-03-08T20:32:11.147Z,97.75
2023-03-08T20:34:40.274Z,99.85
2023-03-08T20:37:09.498Z,97.90
2023-03-08T20:39:38.543Z,97.31
2023-03-08T20:42:09.106Z,98.12
2023-03-08T20:44:38.211Z,98.47
2023-03-08T20:47:07.596Z,98.36
2023-03-08T20:49:36.542Z,98.02
2023-03-08T20:52:06.974Z,98.14
2023-03-08T20:54:36.355Z,98.50
2023-03-08T20:57:06.138Z,98.44
2023-03-08T20:59:37.523Z,98.30
2023-03-08T21:02:06.880Z,98.01
2023-03-08T21:04:35.963Z,98.09
2023-03-08T21:07:07.420Z,97.91
2023-03-08T21:09:36.652Z,98.83
2023-03-08T21:12:09.337Z,100.00
2023-03-08T21:14:39.863Z,100.00
2023-03-08T21:17:09.060Z,100.00
2023-03-08T21:19:38.561Z,100.00
2023-03-08T21:22:07.660Z,100.00
2023-03-08T21:24:36.773Z,100.00
2023-03-08T21:27:05.930Z,100.00
2023-03-08T21:29:34.946Z,100.00
2023-03-08T21:32:05.748Z,100.00
2023-03-08T21:34:34.730Z,100.00
2023-03-08T21:37:03.763Z,100.00
2023-03-08T21:39:32.941Z,100.00
2023-03-08T21:42:01.882Z,100.00
2023-03-08T21:44:32.152Z,100.00
2023-03-08T21:47:01.348Z,100.00
2023-03-08T21:49:34.586Z,100.00
2023-03-08T21:52:04.780Z,100.00
2023-03-08T21:54:33.867Z,100.00
2023-03-08T21:57:02.968Z,100.00
2023-03-08T21:59:32.060Z,100.00
2023-03-08T22:02:01.181Z,100.00
2023-03-08T22:04:31.833Z,100.00
2023-03-08T22:07:01.053Z,100.00
2023-03-08T22:09:30.051Z,100.00
2023-03-08T22:11:59.591Z,100.00
2023-03-08T22:14:29.866Z,100.00
2023-03-08T22:17:00.875Z,100.00
2023-03-08T22:19:29.895Z,100.00
2023-03-08T22:22:01.081Z,100.00
2023-03-08T22:24:32.286Z,100.00
2023-03-08T22:27:03.539Z,100.00
2023-03-08T22:29:33.980Z,100.00
2023-03-08T22:32:03.005Z,100.00
2023-03-08T22:34:32.091Z,100.00
2023-03-08T22:37:02.656Z,100.00
2023-03-08T22:39:31.754Z,100.00
2023-03-08T22:42:01.003Z,100.00
2023-03-08T22:44:30.155Z,100.00
2023-03-08T22:46:59.286Z,100.00
2023-03-08T22:49:28.577Z,100.00
2023-03-08T22:51:57.650Z,100.00
2023-03-08T22:54:28.993Z,100.00
2023-03-08T22:56:58.257Z,100.00
2023-03-08T22:59:27.368Z,100.00
2023-03-08T23:01:56.769Z,100.00
2023-03-08T23:04:25.909Z,100.00
2023-03-08T23:06:54.991Z,100.00
2023-03-08T23:09:24.175Z,100.00
2023-03-08T23:11:54.640Z,100.00
2023-03-08T23:14:23.637Z,100.00
2023-03-08T23:16:53.136Z,100.00
2023-03-08T23:19:23.577Z,100.00
2023-03-08T23:21:52.770Z,100.00
2023-03-08T23:24:22.046Z,100.00
2023-03-08T23:26:51.168Z,100.00
2023-03-08T23:29:21.552Z,100.00
2023-03-08T23:31:50.593Z,100.00
2023-03-08T23:34:19.510Z,100.00
2023-03-08T23:36:48.481Z,100.00
2023-03-08T23:39:17.407Z,100.00
2023-03-08T23:41:46.628Z,100.00
2023-03-08T23:44:15.547Z,100.00
2023-03-08T23:46:46.830Z,100.00
2023-03-08T23:49:17.172Z,100.00
2023-03-08T23:51:46.956Z,100.00
2023-03-08T23:54:15.981Z,100.00
2023-03-08T23:56:45.242Z,100.00
2023-03-08T23:59:17.927Z,100.00
